Time;durP1;ratioP1;P1;durP2;ratioP2;P2;SDS_P1;SDS_P2;PMS_P1;PMS_P2;Temp;Humidity;BMP_temperature;BMP_pressure;BME280_temperature;BME280_humidity;BME280_pressure;Samples;Min_cycle;Max_cycle;Signal;HPM_P1;HPM_P2
2022/02/20 00:02:15;;;;;;;6.77;1.80;;;8.30;99.90;;;;;;5075502;28;20205;-79
2022/02/20 00:04:45;;;;;;;5.17;1.40;;;8.30;99.90;;;;;;5073993;28;20224;-88
2022/02/20 00:07:17;;;;;;;8.30;2.33;;;8.20;99.90;;;;;;5072905;28;20511;-89
2022/02/20 00:09:50;;;;;;;7.57;2.20;;;8.30;99.90;;;;;;5074217;28;20224;-87
2022/02/20 00:12:23;;;;;;;9.90;1.80;;;8.30;99.90;;;;;;5074627;28;20210;-90
2022/02/20 00:14:52;;;;;;;4.83;1.50;;;8.10;99.90;;;;;;5074783;28;20206;-85
2022/02/20 00:17:26;;;;;;;9.27;2.40;;;8.10;99.90;;;;;;5077017;28;20289;-88
2022/02/20 00:19:53;;;;;;;12.60;2.07;;;8.00;99.90;;;;;;5075675;28;20213;-84
2022/02/20 00:22:26;;;;;;;8.40;2.07;;;8.00;99.90;;;;;;5077396;28;20202;-86
2022/02/20 00:24:56;;;;;;;10.00;2.00;;;7.90;99.90;;;;;;5079453;28;20730;-87
2022/02/20 00:27:28;;;;;;;8.37;2.07;;;7.80;99.90;;;;;;5079687;28;20549;-83
2022/02/20 00:29:55;;;;;;;6.27;1.57;;;7.90;99.90;;;;;;5078263;28;20260;-90
2022/02/20 00:32:29;;;;;;;13.70;1.97;;;7.90;99.90;;;;;;5078305;28;20194;-88
2022/02/20 00:34:55;;;;;;;6.30;2.00;;;7.90;99.90;;;;;;5079562;28;20202;-87
2022/02/20 00:37:28;;;;;;;9.07;1.80;;;7.80;99.90;;;;;;5078208;28;20212;-89
2022/02/20 00:40:02;;;;;;;4.53;1.20;;;7.80;99.90;;;;;;5077882;28;20194;-89
2022/02/20 00:42:35;;;;;;;6.80;1.30;;;7.70;99.90;;;;;;5077441;28;20197;-87
2022/02/20 00:45:07;;;;;;;10.77;2.47;;;7.70;99.90;;;;;;5079331;28;20237;-87
2022/02/20 00:47:40;;;;;;;9.67;1.80;;;7.60;99.90;;;;;;5078557;28;20263;-88
2022/02/20 00:50:10;;;;;;;7.80;2.00;;;7.60;99.90;;;;;;5078549;28;20214;-84
2022/02/20 00:52:39;;;;;;;7.93;1.83;;;7.60;99.90;;;;;;5078952;28;20189;-86
2022/02/20 00:55:08;;;;;;;7.27;1.90;;;7.60;99.90;;;;;;5079094;28;20190;-88
2022/02/20 00:57:38;;;;;;;8.53;2.43;;;7.60;99.90;;;;;;5078665;28;20190;-91
2022/02/20 01:00:09;;;;;;;6.80;1.67;;;7.60;99.90;;;;;;5077570;28;20648;-82
2022/02/20 01:02:42;;;;;;;7.47;1.80;;;7.60;99.90;;;;;;5078266;28;20198;-87
2022/02/20 01:05:10;;;;;;;9.90;2.07;;;7.60;99.90;;;;;;5076971;28;20226;-88
2022/02/20 01:07:43;;;;;;;10.83;1.87;;;7.60;99.90;;;;;;5077871;28;20205;-90
2022/02/20 01:10:12;;;;;;;10.00;1.97;;;7.50;99.90;;;;;;5077965;28;20218;-89
2022/02/20 01:12:41;;;;;;;8.97;2.10;;;7.50;99.90;;;;;;5078382;28;20442;-86
2022/02/20 01:15:12;;;;;;;5.13;1.83;;;7.50;99.90;;;;;;5078142;28;20196;-87
2022/02/20 01:17:44;;;;;;;6.53;1.47;;;7.50;99.90;;;;;;5076786;28;20571;-88
2022/02/20 01:20:12;;;;;;;5.33;1.50;;;7.40;99.90;;;;;;5077971;28;20224;-87
2022/02/20 01:22:41;;;;;;;9.07;1.77;;;7.40;99.90;;;;;;5077797;28;20201;-87
2022/02/20 01:25:09;;;;;;;8.53;1.70;;;7.40;99.90;;;;;;5077489;28;20194;-86
2022/02/20 01:27:39;;;;;;;9.23;2.70;;;7.40;99.90;;;;;;5077626;28;20254;-89
2022/02/20 01:30:12;;;;;;;8.57;2.10;;;7.40;99.90;;;;;;5077558;28;20246;-90
2022/02/20 01:32:50;;;;;;;11.43;2.03;;;7.40;99.90;;;;;;5078825;28;20190;-89
2022/02/20 01:35:18;;;;;;;6.50;2.05;;;7.40;99.90;;;;;;5076965;28;20426;-89
2022/02/20 01:37:46;;;;;;;9.97;1.80;;;7.40;99.90;;;;;;5077139;28;20194;-90
2022/02/20 01:40:19;;;;;;;9.83;1.87;;;7.30;99.90;;;;;;5077667;28;20197;-89
2022/02/20 01:42:50;;;;;;;10.53;2.07;;;7.30;99.90;;;;;;5077737;28;20206;-88
2022/02/20 01:45:19;;;;;;;10.60;2.00;;;7.30;99.90;;;;;;5077283;28;20194;-90
2022/02/20 01:47:54;;;;;;;12.60;2.83;;;7.30;99.90;;;;;;5076250;28;20206;-88
2022/02/20 01:50:23;;;;;;;9.77;2.20;;;7.20;99.90;;;;;;5076763;28;20217;-90
2022/02/20 01:52:55;;;;;;;10.23;2.70;;;7.20;99.90;;;;;;5076295;28;20193;-89
2022/02/20 01:55:29;;;;;;;15.10;2.40;;;7.30;99.90;;;;;;5077162;28;20202;-87
2022/02/20 01:57:58;;;;;;;13.10;3.10;;;7.30;99.90;;;;;;5076261;28;20890;-87
2022/02/20 02:00:30;;;;;;;12.67;2.50;;;7.30;99.90;;;;;;5076966;28;20217;-90
2022/02/20 02:03:01;;;;;;;14.13;2.90;;;7.40;99.90;;;;;;5076377;28;20656;-91
2022/02/20 02:05:34;;;;;;;11.30;2.50;;;7.40;99.90;;;;;;5076618;28;20206;-89
2022/02/20 02:08:07;;;;;;;11.80;2.90;;;7.40;99.90;;;;;;5076074;28;20655;-89
2022/02/20 02:10:37;;;;;;;13.67;2.87;;;7.50;99.90;;;;;;5076415;28;20226;-86
2022/02/20 02:13:07;;;;;;;11.07;3.73;;;7.60;99.90;;;;;;5076259;28;20194;-89
2022/02/20 02:15:49;;;;;;;15.73;4.07;;;7.70;99.90;;;;;;5076569;28;20186;-88
2022/02/20 02:18:18;;;;;;;16.33;4.17;;;7.60;99.90;;;;;;5075971;28;20205;-89
2022/02/20 02:20:49;;;;;;;16.40;4.10;;;7.50;99.90;;;;;;5075449;28;20429;-86
2022/02/20 02:23:23;;;;;;;12.83;3.43;;;7.60;99.90;;;;;;5075808;28;20213;-87
2022/02/20 02:25:51;;;;;;;13.47;3.40;;;7.60;99.90;;;;;;5076359;28;20197;-87
2022/02/20 02:28:20;;;;;;;20.93;4.13;;;7.70;99.90;;;;;;5075734;28;20692;-85
2022/02/20 02:30:54;;;;;;;23.67;5.07;;;7.70;99.90;;;;;;5075207;28;20241;-88
2022/02/20 02:33:28;;;;;;;18.00;3.87;;;7.70;99.90;;;;;;5075935;28;20292;-81
2022/02/20 02:35:59;;;;;;;18.67;3.87;;;7.80;99.90;;;;;;5075685;28;20675;-81
2022/02/20 02:38:29;;;;;;;18.70;4.47;;;7.90;99.90;;;;;;5075269;28;20197;-90
2022/02/20 02:41:04;;;;;;;20.30;4.30;;;8.00;99.90;;;;;;5075802;28;20759;-88
2022/02/20 02:43:32;;;;;;;22.10;5.70;;;7.90;99.90;;;;;;5074489;28;20821;-91
2022/02/20 02:46:02;;;;;;;21.00;4.10;;;8.00;99.90;;;;;;5075343;28;20209;-88
2022/02/20 02:48:29;;;;;;;22.03;4.40;;;8.00;99.90;;;;;;5076290;28;20202;-85
2022/02/20 02:51:01;;;;;;;20.30;4.47;;;8.10;99.90;;;;;;5074792;28;20299;-86
2022/02/20 02:53:31;;;;;;;27.00;5.43;;;8.10;99.90;;;;;;5075611;28;20367;-87
2022/02/20 02:56:01;;;;;;;20.53;5.00;;;8.10;99.90;;;;;;5075929;28;20216;-88
2022/02/20 02:58:30;;;;;;;26.43;4.73;;;8.00;99.90;;;;;;5076614;28;20209;-85
2022/02/20 03:01:00;;;;;;;30.93;5.33;;;8.00;99.90;;;;;;5076479;28;20190;-89
2022/02/20 03:03:28;;;;;;;29.60;5.33;;;7.90;99.90;;;;;;5076194;28;20226;-87
2022/02/20 03:06:06;;;;;;;33.67;7.45;;;8.00;99.90;;;;;;5074973;28;20795;-91
2022/02/20 03:08:40;;;;;;;29.53;6.33;;;8.10;99.90;;;;;;5076018;28;20192;-89
2022/02/20 03:11:13;;;;;;;25.80;5.33;;;8.10;99.90;;;;;;5075627;28;20213;-82
2022/02/20 03:13:41;;;;;;;28.47;5.90;;;8.20;99.90;;;;;;5075000;28;20190;-79
2022/02/20 03:16:08;;;;;;;36.43;6.83;;;8.20;99.90;;;;;;5075572;28;20209;-88
2022/02/20 03:18:35;;;;;;;34.87;6.00;;;8.40;99.90;;;;;;5075168;28;20213;-89
2022/02/20 03:21:04;;;;;;;35.73;5.93;;;8.30;99.90;;;;;;5074972;28;20570;-87
2022/02/20 03:23:33;;;;;;;28.53;6.30;;;8.30;99.90;;;;;;5075883;28;20210;-89
2022/02/20 03:26:01;;;;;;;32.80;5.73;;;8.30;99.90;;;;;;5075926;28;20197;-84
2022/02/20 03:28:30;;;;;;;34.77;7.17;;;8.20;99.90;;;;;;5074162;28;20427;-90
2022/02/20 03:30:57;;;;;;;30.43;5.60;;;8.20;99.90;;;;;;5075360;28;20213;-85
2022/02/20 03:33:30;;;;;;;33.93;5.97;;;8.10;99.90;;;;;;5075729;28;20208;-87
2022/02/20 03:35:57;;;;;;;40.97;5.87;;;8.10;99.90;;;;;;5075958;28;20236;-82
2022/02/20 03:38:30;;;;;;;33.83;6.17;;;8.10;99.90;;;;;;5075831;28;20217;-84
2022/02/20 03:40:57;;;;;;;31.63;5.70;;;8.10;99.90;;;;;;5075483;28;20339;-91
2022/02/20 03:43:26;;;;;;;44.90;6.70;;;8.10;99.90;;;;;;5075745;28;20205;-91
2022/02/20 03:45:54;;;;;;;40.60;7.77;;;8.10;99.90;;;;;;5075488;28;20205;-87
2022/02/20 03:48:24;;;;;;;31.83;6.47;;;8.10;99.90;;;;;;5074470;28;20743;-90
2022/02/20 03:50:51;;;;;;;43.63;7.70;;;8.00;99.90;;;;;;5074392;28;20217;-89
2022/02/20 03:53:18;;;;;;;36.80;7.67;;;8.10;99.90;;;;;;5075295;28;20198;-88
2022/02/20 03:55:47;;;;;;;44.00;6.93;;;8.10;99.90;;;;;;5075622;28;20263;-89
2022/02/20 03:58:15;;;;;;;38.50;6.47;;;8.10;99.90;;;;;;5079612;28;20665;-88
2022/02/20 04:00:43;;;;;;;47.43;7.83;;;8.10;99.90;;;;;;5080774;28;20323;-89
2022/02/20 04:03:10;;;;;;;38.07;7.73;;;8.10;99.90;;;;;;5080158;28;20221;-88
2022/02/20 04:05:38;;;;;;;31.87;6.17;;;8.10;99.90;;;;;;5081164;28;20208;-85
2022/02/20 04:08:06;;;;;;;41.40;6.87;;;8.10;99.90;;;;;;5080767;28;20186;-88
2022/02/20 04:10:34;;;;;;;42.60;6.97;;;8.10;99.90;;;;;;5080206;28;20201;-84
2022/02/20 04:13:01;;;;;;;41.13;6.60;;;8.10;99.90;;;;;;5078803;28;20216;-86
2022/02/20 04:15:33;;;;;;;35.03;6.03;;;8.20;99.90;;;;;;5079541;28;20201;-85
2022/02/20 04:18:03;;;;;;;48.93;8.67;;;8.20;99.90;;;;;;5078027;28;20202;-86
2022/02/20 04:20:30;;;;;;;39.43;6.73;;;8.20;99.90;;;;;;5079537;28;20206;-87
2022/02/20 04:22:57;;;;;;;37.03;6.37;;;8.30;99.90;;;;;;5079296;28;20216;-82
2022/02/20 04:25:24;;;;;;;30.97;6.83;;;8.30;99.90;;;;;;5078496;28;20206;-84
2022/02/20 04:27:52;;;;;;;37.57;6.07;;;8.30;99.90;;;;;;5080047;28;20210;-84
2022/02/20 04:30:21;;;;;;;33.23;6.30;;;8.30;99.90;;;;;;5078879;28;20688;-83
2022/02/20 04:32:49;;;;;;;24.23;5.20;;;8.30;99.90;;;;;;5079062;28;20236;-82
2022/02/20 04:35:19;;;;;;;38.53;5.70;;;8.40;99.90;;;;;;5077912;28;20190;-85
2022/02/20 04:37:45;;;;;;;36.87;7.73;;;8.50;99.90;;;;;;5076522;28;20202;-84
2022/02/20 04:40:13;;;;;;;25.50;5.57;;;8.50;99.90;;;;;;5078424;28;20228;-83
2022/02/20 04:42:51;;;;;;;34.47;5.90;;;8.50;99.90;;;;;;5079402;28;20210;-85
2022/02/20 04:45:18;;;;;;;31.43;5.00;;;8.50;99.90;;;;;;5081597;28;20201;-85
2022/02/20 04:47:48;;;;;;;29.07;5.97;;;8.60;99.90;;;;;;5080385;28;20197;-83
2022/02/20 04:50:17;;;;;;;32.37;5.43;;;8.60;99.90;;;;;;5080333;28;20186;-85
2022/02/20 04:52:46;;;;;;;32.63;5.37;;;8.60;99.90;;;;;;5081406;28;20312;-81
2022/02/20 04:55:13;;;;;;;37.87;5.60;;;8.70;99.90;;;;;;5080252;28;20205;-82
2022/02/20 04:57:42;;;;;;;30.43;6.00;;;8.70;99.90;;;;;;5077584;28;20202;-80
2022/02/20 05:00:12;;;;;;;39.50;5.13;;;8.70;99.90;;;;;;5077849;28;20194;-84
2022/02/20 05:02:39;;;;;;;24.47;5.23;;;8.80;99.90;;;;;;5059134;28;20612;-85
2022/02/20 05:05:15;;;;;;;29.70;5.07;;;8.80;99.90;;;;;;5076976;28;20229;-81
2022/02/20 05:07:41;;;;;;;31.60;4.97;;;8.70;99.90;;;;;;5076684;28;20204;-80
2022/02/20 05:10:14;;;;;;;32.70;5.97;;;8.70;99.90;;;;;;5076204;28;20211;-81
2022/02/20 05:12:41;;;;;;;26.53;4.97;;;8.70;99.90;;;;;;5076281;28;20241;-81
2022/02/20 05:15:09;;;;;;;27.17;4.97;;;8.60;99.90;;;;;;5076087;28;20208;-83
2022/02/20 05:17:39;;;;;;;24.53;4.40;;;8.60;99.90;;;;;;5076690;28;20290;-80
2022/02/20 05:20:09;;;;;;;27.88;6.18;;;8.60;99.90;;;;;;5076757;28;20428;-81
2022/02/20 05:22:36;;;;;;;29.33;5.30;;;8.60;99.90;;;;;;5077551;28;20245;-81
2022/02/20 05:25:06;;;;;;;28.73;5.83;;;8.50;99.90;;;;;;5077238;28;20201;-84
2022/02/20 05:27:42;;;;;;;36.00;5.10;;;8.60;99.90;;;;;;5079521;28;20206;-82
2022/02/20 05:30:10;;;;;;;25.73;5.00;;;8.60;99.90;;;;;;5078662;28;20190;-81
2022/02/20 05:32:38;;;;;;;29.00;4.57;;;8.60;99.90;;;;;;5077138;28;20217;-81
2022/02/20 05:35:07;;;;;;;20.20;4.57;;;8.50;99.90;;;;;;5079280;28;20589;-82
2022/02/20 05:37:43;;;;;;;22.03;4.13;;;8.60;99.90;;;;;;5079665;28;20695;-83
2022/02/20 05:40:15;;;;;;;29.93;4.47;;;8.50;99.90;;;;;;5077106;28;20190;-81
2022/02/20 05:42:44;;;;;;;28.03;6.07;;;8.50;99.90;;;;;;5077227;28;20201;-81
2022/02/20 05:45:12;;;;;;;24.03;4.87;;;8.50;99.90;;;;;;5077952;28;20205;-84
2022/02/20 05:47:40;;;;;;;28.43;5.20;;;8.50;99.90;;;;;;5079651;28;20200;-80
2022/02/20 05:50:11;;;;;;;21.17;4.73;;;8.60;99.90;;;;;;5078808;28;20209;-83
2022/02/20 05:52:41;;;;;;;18.90;4.43;;;8.60;99.90;;;;;;5077610;28;20292;-82
2022/02/20 05:55:09;;;;;;;21.93;4.97;;;8.60;99.90;;;;;;5076809;28;20190;-81
2022/02/20 05:57:47;;;;;;;20.73;5.27;;;8.60;99.90;;;;;;5080014;28;20217;-84
2022/02/20 06:00:16;;;;;;;25.40;4.77;;;8.70;99.90;;;;;;5077505;28;20265;-83
2022/02/20 06:02:42;;;;;;;24.30;5.37;;;8.70;99.90;;;;;;5077022;28;20210;-82
2022/02/20 06:05:12;;;;;;;19.77;4.80;;;8.70;99.90;;;;;;5077240;28;20226;-82
2022/02/20 06:07:39;;;;;;;26.93;5.83;;;8.80;99.90;;;;;;5077462;28;20209;-80
2022/02/20 06:10:08;;;;;;;21.43;5.10;;;8.80;99.90;;;;;;5078375;28;20198;-82
2022/02/20 06:12:40;;;;;;;27.90;6.40;;;8.80;99.90;;;;;;5078983;28;20586;-84
2022/02/20 06:15:10;;;;;;;17.27;5.07;;;8.80;99.90;;;;;;5078802;28;20202;-84
2022/02/20 06:17:39;;;;;;;31.73;6.37;;;8.80;99.90;;;;;;5079851;28;20232;-82
2022/02/20 06:20:08;;;;;;;26.53;6.30;;;8.90;99.90;;;;;;5079591;28;20653;-82
2022/02/20 06:22:36;;;;;;;27.50;5.67;;;8.90;99.90;;;;;;5078730;28;20237;-84
2022/02/20 06:25:04;;;;;;;23.43;5.53;;;8.80;99.90;;;;;;5078227;28;20589;-82
2022/02/20 06:27:33;;;;;;;25.93;4.90;;;8.80;99.90;;;;;;5079058;28;20205;-83
2022/02/20 06:30:01;;;;;;;22.07;5.33;;;8.80;99.90;;;;;;5079466;28;20205;-84
2022/02/20 06:32:30;;;;;;;22.60;5.27;;;8.80;99.90;;;;;;5078198;28;20221;-83
2022/02/20 06:35:04;;;;;;;16.80;4.97;;;8.80;99.90;;;;;;5077671;28;20186;-82
2022/02/20 06:37:34;;;;;;;24.23;4.83;;;8.80;99.90;;;;;;5059670;28;21013;-84
2022/02/20 06:40:01;;;;;;;20.60;5.33;;;8.90;99.90;;;;;;5076350;28;20190;-83
2022/02/20 06:42:28;;;;;;;27.00;5.40;;;8.90;99.90;;;;;;5076523;28;20194;-83
2022/02/20 06:44:56;;;;;;;23.17;4.77;;;8.90;99.90;;;;;;5076495;28;20194;-82
2022/02/20 06:47:23;;;;;;;22.00;5.57;;;8.90;99.90;;;;;;5075956;28;20201;-82
2022/02/20 06:49:52;;;;;;;28.53;6.23;;;8.90;99.90;;;;;;5077960;28;20209;-81
2022/02/20 06:52:21;;;;;;;19.77;4.90;;;8.80;99.90;;;;;;5075664;28;20232;-82
2022/02/20 06:54:55;;;;;;;20.83;5.03;;;8.90;99.90;;;;;;5076926;28;20212;-82
2022/02/20 06:57:25;;;;;;;18.40;5.57;;;8.90;99.90;;;;;;5076173;28;20276;-84
2022/02/20 06:59:52;;;;;;;18.20;5.87;;;8.90;99.90;;;;;;5076594;28;20204;-82
2022/02/20 07:02:19;;;;;;;17.70;5.53;;;8.90;99.90;;;;;;5076463;28;20194;-83
2022/02/20 07:04:48;;;;;;;21.33;5.40;;;8.80;99.90;;;;;;5076471;28;20228;-82
2022/02/20 07:07:16;;;;;;;17.90;6.07;;;8.90;99.90;;;;;;5075556;28;20192;-85
2022/02/20 07:09:43;;;;;;;20.15;6.20;;;9.00;99.90;;;;;;5075113;28;20443;-82
2022/02/20 07:12:10;;;;;;;18.30;5.77;;;8.90;99.90;;;;;;5076402;28;20225;-81
2022/02/20 07:14:39;;;;;;;17.03;5.83;;;8.90;99.90;;;;;;5075737;28;20533;-81
2022/02/20 07:17:06;;;;;;;19.60;6.03;;;9.00;99.90;;;;;;5074822;28;20206;-81
2022/02/20 07:19:33;;;;;;;21.27;6.40;;;9.00;99.90;;;;;;5074455;28;20275;-81
2022/02/20 07:22:00;;;;;;;19.47;6.40;;;9.00;99.90;;;;;;5074124;28;20218;-80
2022/02/20 07:24:29;;;;;;;17.67;6.00;;;9.10;99.90;;;;;;5074891;28;20632;-79
2022/02/20 07:26:56;;;;;;;16.30;5.97;;;9.00;99.90;;;;;;5075408;28;20194;-80
2022/02/20 07:29:24;;;;;;;14.20;4.77;;;9.10;99.90;;;;;;5074624;28;20212;-81
2022/02/20 07:31:53;;;;;;;16.93;7.03;;;9.10;99.90;;;;;;5074734;28;20194;-81
2022/02/20 07:34:19;;;;;;;15.43;5.63;;;9.20;99.90;;;;;;5074621;28;20197;-79
2022/02/20 07:36:47;;;;;;;19.27;5.93;;;9.20;99.90;;;;;;5074358;28;20199;-80
2022/02/20 07:39:15;;;;;;;17.90;6.10;;;9.20;99.90;;;;;;5075023;28;20657;-80
2022/02/20 07:41:47;;;;;;;18.47;6.23;;;9.20;99.90;;;;;;5075391;28;20205;-80
2022/02/20 07:44:14;;;;;;;18.27;7.77;;;9.20;99.90;;;;;;5074403;28;20271;-80
2022/02/20 07:46:42;;;;;;;15.00;6.37;;;9.20;99.90;;;;;;5074618;28;20205;-81
2022/02/20 07:49:11;;;;;;;17.00;6.83;;;9.20;99.90;;;;;;5074919;28;20210;-81
2022/02/20 07:51:38;;;;;;;20.50;7.33;;;9.30;99.90;;;;;;5075032;28;20685;-80
2022/02/20 07:54:06;;;;;;;16.50;7.10;;;9.20;99.90;;;;;;5075271;28;20550;-81
2022/02/20 07:56:33;;;;;;;16.13;6.70;;;9.20;99.90;;;;;;5074901;28;20644;-81
2022/02/20 07:59:01;;;;;;;14.37;6.90;;;9.20;99.90;;;;;;5074646;28;20190;-81
2022/02/20 08:01:32;;;;;;;20.03;6.70;;;9.30;99.90;;;;;;5073875;28;20563;-80
2022/02/20 08:04:02;;;;;;;14.87;6.17;;;9.30;99.90;;;;;;5073423;28;20222;-81
2022/02/20 08:06:29;;;;;;;18.97;6.20;;;9.30;99.90;;;;;;5074155;28;20657;-81
2022/02/20 08:08:57;;;;;;;14.00;5.67;;;9.40;99.90;;;;;;5074145;28;20568;-82
2022/02/20 08:11:24;;;;;;;14.03;5.53;;;9.30;99.90;;;;;;5074214;28;20277;-82
2022/02/20 08:13:51;;;;;;;13.10;5.30;;;9.30;99.90;;;;;;5074014;28;20233;-83
2022/02/20 08:16:20;;;;;;;14.47;5.67;;;9.30;99.90;;;;;;5075033;28;20198;-82
2022/02/20 08:18:47;;;;;;;9.77;4.73;;;9.30;99.90;;;;;;5074057;28;20190;-83
2022/02/20 08:21:14;;;;;;;13.27;4.93;;;9.30;99.90;;;;;;5074293;28;20210;-84
2022/02/20 08:23:42;;;;;;;11.93;4.87;;;9.40;99.90;;;;;;5073550;28;20197;-82
2022/02/20 08:26:13;;;;;;;16.80;4.77;;;9.50;99.90;;;;;;5073930;28;20190;-83
2022/02/20 08:28:41;;;;;;;19.70;5.07;;;9.40;99.90;;;;;;5074883;28;20206;-84
2022/02/20 08:31:11;;;;;;;16.50;5.70;;;9.50;99.90;;;;;;5065701;28;20198;-87
2022/02/20 08:33:40;;;;;;;17.17;4.70;;;9.60;99.90;;;;;;5073873;28;20222;-81
2022/02/20 08:36:10;;;;;;;17.07;4.97;;;9.70;99.90;;;;;;5074292;28;20229;-83
2022/02/20 08:38:37;;;;;;;22.43;5.33;;;9.70;99.90;;;;;;5074615;28;20193;-85
2022/02/20 08:41:05;;;;;;;17.53;5.80;;;9.70;99.90;;;;;;5074085;28;20208;-84
2022/02/20 08:43:38;;;;;;;14.57;4.53;;;9.90;99.90;;;;;;5075681;28;20198;-88
2022/02/20 08:46:12;;;;;;;22.27;4.90;;;9.90;99.90;;;;;;5077362;28;20810;-88
2022/02/20 08:48:43;;;;;;;17.43;4.10;;;10.00;99.90;;;;;;5076734;28;20657;-85
2022/02/20 08:51:10;;;;;;;21.83;4.77;;;10.00;99.90;;;;;;5077860;28;20252;-86
2022/02/20 08:53:38;;;;;;;22.10;5.10;;;10.00;99.90;;;;;;5077009;28;20225;-86
2022/02/20 08:56:08;;;;;;;24.73;5.70;;;10.00;99.90;;;;;;5041181;28;20199;-86
2022/02/20 08:58:36;;;;;;;22.70;4.97;;;10.00;99.90;;;;;;5077866;28;20201;-83
2022/02/20 09:01:10;;;;;;;19.13;5.20;;;10.10;99.90;;;;;;5077850;28;20202;-86
2022/02/20 09:03:42;;;;;;;30.43;6.87;;;10.10;99.90;;;;;;5078059;28;20278;-87
2022/02/20 09:06:11;;;;;;;25.57;5.70;;;10.20;99.90;;;;;;5077930;28;20606;-85
2022/02/20 09:08:41;;;;;;;23.17;5.43;;;10.20;99.90;;;;;;5077812;28;20202;-83
2022/02/20 09:11:09;;;;;;;25.40;5.97;;;10.10;99.90;;;;;;5078744;28;20202;-85
2022/02/20 09:13:36;;;;;;;25.20;6.10;;;10.10;99.90;;;;;;5073943;28;20267;-83
2022/02/20 09:16:05;;;;;;;17.70;5.63;;;10.00;99.90;;;;;;5076337;28;20213;-86
2022/02/20 09:18:32;;;;;;;19.27;5.33;;;10.00;99.90;;;;;;5058821;28;20251;-87
2022/02/20 09:21:00;;;;;;;19.23;4.53;;;10.20;99.90;;;;;;5076383;28;20197;-83
2022/02/20 09:23:28;;;;;;;19.67;5.40;;;10.10;99.90;;;;;;5075578;28;20202;-85
2022/02/20 09:25:55;;;;;;;26.20;5.80;;;10.10;99.90;;;;;;5075517;28;20208;-90
2022/02/20 09:28:23;;;;;;;18.37;4.40;;;10.10;99.90;;;;;;5064399;28;20199;-86
2022/02/20 09:30:50;;;;;;;21.10;4.93;;;10.10;99.90;;;;;;5056882;28;20224;-84
2022/02/20 09:33:18;;;;;;;22.33;4.97;;;10.10;99.90;;;;;;5075323;28;20619;-85
2022/02/20 09:35:45;;;;;;;21.93;4.70;;;10.10;99.90;;;;;;5076981;28;20197;-83
2022/02/20 09:38:13;;;;;;;25.77;5.60;;;10.20;99.90;;;;;;5075815;28;20665;-81
2022/02/20 09:40:44;;;;;;;20.70;5.43;;;10.30;99.90;;;;;;5057191;28;20233;-79
2022/02/20 09:43:13;;;;;;;19.20;5.63;;;10.30;99.90;;;;;;5059065;28;20643;-89
2022/02/20 09:45:47;;;;;;;25.70;6.68;;;10.30;99.90;;;;;;5075361;28;20451;-87
2022/02/20 09:48:16;;;;;;;32.23;6.43;;;10.30;99.90;;;;;;5075145;28;20194;-84
2022/02/20 09:50:44;;;;;;;21.60;5.47;;;10.30;99.90;;;;;;5074882;28;20202;-85
2022/02/20 09:53:12;;;;;;;29.27;6.63;;;10.30;99.90;;;;;;5075381;28;20275;-83
2022/02/20 09:55:39;;;;;;;26.67;7.13;;;10.30;99.90;;;;;;5075306;28;20194;-85
2022/02/20 09:58:09;;;;;;;30.40;6.50;;;10.40;99.90;;;;;;5075727;28;20202;-83
2022/02/20 10:00:36;;;;;;;30.70;6.37;;;10.50;99.90;;;;;;5075660;28;20209;-86
2022/02/20 10:03:04;;;;;;;30.43;5.73;;;10.50;99.90;;;;;;5076052;28;20229;-84
2022/02/20 10:05:52;;;;;;;35.83;7.10;;;10.40;99.90;;;;;;5076477;28;20581;-83
2022/02/20 10:08:26;;;;;;;31.70;7.40;;;10.50;99.90;;;;;;5075505;28;20424;-86
2022/02/20 10:10:54;;;;;;;32.63;6.00;;;10.60;99.90;;;;;;5076441;28;20198;-85
2022/02/20 10:13:30;;;;;;;39.20;7.10;;;10.60;99.90;;;;;;5075223;28;20715;-87
2022/02/20 10:15:58;;;;;;;31.50;6.90;;;10.60;99.90;;;;;;5075575;28;20660;-85
2022/02/20 10:18:28;;;;;;;28.57;6.00;;;10.60;99.90;;;;;;5074509;28;20249;-87
2022/02/20 10:21:04;;;;;;;24.37;5.40;;;10.60;99.90;;;;;;5074324;28;20205;-83
2022/02/20 10:23:43;;;;;;;28.67;5.80;;;10.70;99.90;;;;;;5074889;28;20213;-84
2022/02/20 10:26:15;;;;;;;27.57;5.53;;;10.60;99.90;;;;;;5073001;28;20198;-83
2022/02/20 10:29:06;;;;;;;29.53;6.13;;;10.60;99.90;;;;;;5075370;28;20234;-85
2022/02/20 10:31:48;;;;;;;33.97;7.97;;;10.70;99.90;;;;;;5071385;28;20447;-85
2022/02/20 10:34:21;;;;;;;28.13;6.03;;;10.80;99.90;;;;;;5076029;28;20647;-90
2022/02/20 10:36:57;;;;;;;32.93;6.23;;;10.80;99.90;;;;;;5075632;28;20194;-86
2022/02/20 10:39:33;;;;;;;28.97;6.20;;;10.80;99.90;;;;;;5075258;28;20693;-85
2022/02/20 10:42:13;;;;;;;26.07;5.40;;;10.80;99.90;;;;;;5056836;28;20652;-86
2022/02/20 10:44:50;;;;;;;34.90;6.23;;;10.80;99.90;;;;;;5074374;28;20194;-84
2022/02/20 10:47:22;;;;;;;30.50;6.63;;;10.80;99.90;;;;;;5074312;28;20667;-88
2022/02/20 10:49:51;;;;;;;30.57;6.23;;;10.70;99.90;;;;;;5074380;28;20696;-84
2022/02/20 10:52:24;;;;;;;33.20;6.60;;;10.70;99.90;;;;;;5075110;28;20190;-90
2022/02/20 10:55:08;;;;;;;32.63;6.27;;;10.80;99.90;;;;;;5074709;28;20230;-89
2022/02/20 10:57:37;;;;;;;36.53;7.40;;;10.70;99.90;;;;;;5074842;28;20235;-80
2022/02/20 11:00:11;;;;;;;36.10;7.30;;;10.70;99.90;;;;;;5074197;28;20558;-79
2022/02/20 11:02:40;;;;;;;41.37;7.77;;;10.70;99.90;;;;;;5073945;28;20676;-81
2022/02/20 11:05:12;;;;;;;31.57;6.03;;;10.70;99.90;;;;;;5074460;28;20200;-82
2022/02/20 11:07:42;;;;;;;29.97;6.50;;;10.70;99.90;;;;;;5077639;28;20277;-86
2022/02/20 11:10:12;;;;;;;42.67;8.30;;;10.60;99.90;;;;;;5080738;28;20202;-86
2022/02/20 11:12:42;;;;;;;36.17;6.43;;;10.80;99.90;;;;;;5078312;28;20212;-85
2022/02/20 11:15:17;;;;;;;40.58;9.15;;;10.70;99.90;;;;;;5081572;28;20465;-84
2022/02/20 11:17:47;;;;;;;23.63;5.50;;;10.80;99.90;;;;;;5059461;28;20228;-86
2022/02/20 11:20:16;;;;;;;39.00;5.97;;;10.90;99.90;;;;;;5077591;28;20205;-85
2022/02/20 11:22:50;;;;;;;40.57;7.17;;;10.90;99.90;;;;;;5081093;28;20212;-84
2022/02/20 11:25:21;;;;;;;39.00;7.60;;;10.80;99.90;;;;;;5078118;28;20186;-87
2022/02/20 11:27:51;;;;;;;34.03;6.73;;;10.90;99.90;;;;;;5080491;28;20202;-87
2022/02/20 11:30:18;;;;;;;37.07;6.63;;;10.80;99.90;;;;;;5078642;28;20190;-86
2022/02/20 11:32:46;;;;;;;38.20;6.87;;;10.80;99.90;;;;;;5078079;28;20205;-86
2022/02/20 11:35:17;;;;;;;46.80;8.33;;;10.80;99.90;;;;;;5075366;28;20237;-90
2022/02/20 11:37:51;;;;;;;38.38;8.68;;;10.70;99.90;;;;;;5074528;28;20449;-88
2022/02/20 11:40:22;;;;;;;37.03;6.97;;;10.90;99.90;;;;;;5074505;28;20206;-84
2022/02/20 11:43:10;;;;;;;35.27;6.83;;;10.70;99.90;;;;;;5075266;28;20206;-88
2022/02/20 11:46:11;;;;;;;37.20;6.77;;;10.70;99.90;;;;;;5052956;28;20229;-86
2022/02/20 11:49:26;;;;;;;35.67;7.33;;;10.70;99.90;;;;;;5055489;28;20209;-87
2022/02/20 11:52:09;;;;;;;38.20;7.57;;;10.70;99.90;;;;;;5062369;28;20207;-89
2022/02/20 11:54:38;;;;;;;43.53;8.27;;;10.70;99.90;;;;;;5067274;28;20281;-87
2022/02/20 11:57:26;;;;;;;41.60;7.27;;;10.70;99.90;;;;;;5072378;28;20669;-85
2022/02/20 12:00:18;;;;;;;48.83;10.18;;;10.80;99.90;;;;;;5066751;28;20419;-85
2022/02/20 12:03:17;;;;;;;40.20;6.83;;;10.80;99.90;;;;;;5074638;28;20217;-86
2022/02/20 12:06:20;;;;;;;43.80;8.63;;;10.80;99.90;;;;;;5079844;28;20584;-87
2022/02/20 12:08:49;;;;;;;36.07;6.87;;;10.80;99.90;;;;;;5076746;28;20663;-85
2022/02/20 12:11:18;;;;;;;37.17;7.47;;;10.80;99.90;;;;;;5078802;28;20637;-87
2022/02/20 12:13:49;;;;;;;38.30;7.33;;;10.80;99.90;;;;;;5080406;28;20224;-87
2022/02/20 12:16:25;;;;;;;30.83;6.93;;;10.90;99.90;;;;;;5079892;28;20574;-86
2022/02/20 12:19:19;;;;;;;32.90;6.33;;;10.90;99.90;;;;;;5078766;28;20205;-87
2022/02/20 12:21:55;;;;;;;28.50;6.43;;;11.00;99.90;;;;;;5056341;28;20566;-81
2022/02/20 12:24:45;;;;;;;30.80;6.00;;;11.00;99.90;;;;;;5066735;28;20214;-86
2022/02/20 12:27:14;;;;;;;26.33;6.40;;;11.10;99.90;;;;;;5076384;28;20206;-80
2022/02/20 12:29:48;;;;;;;38.67;6.57;;;11.10;99.90;;;;;;5074997;28;20202;-80
2022/02/20 12:32:17;;;;;;;39.97;9.40;;;11.10;99.90;;;;;;5073116;28;20292;-80
2022/02/20 12:34:52;;;;;;;37.00;8.03;;;11.10;99.90;;;;;;5077643;28;20708;-84
2022/02/20 12:37:23;;;;;;;34.50;6.37;;;11.00;99.90;;;;;;5077775;28;20242;-82
2022/02/20 12:39:55;;;;;;;36.73;7.67;;;11.20;99.90;;;;;;5077062;28;20194;-81
2022/02/20 12:42:22;;;;;;;25.73;6.00;;;11.10;99.90;;;;;;5067971;28;20559;-79
2022/02/20 12:44:50;;;;;;;33.07;7.30;;;11.10;99.90;;;;;;5064336;28;20210;-78
2022/02/20 12:47:18;;;;;;;28.97;5.67;;;11.20;99.90;;;;;;5058152;28;20674;-78
2022/02/20 12:49:55;;;;;;;37.80;6.37;;;11.00;99.90;;;;;;5057716;28;20268;-91
2022/02/20 12:52:22;;;;;;;35.60;6.90;;;11.00;99.90;;;;;;5058146;28;20205;-88
2022/02/20 12:54:56;;;;;;;39.37;7.27;;;11.00;99.90;;;;;;5057282;28;20237;-80
2022/02/20 12:57:27;;;;;;;33.23;7.77;;;11.00;99.90;;;;;;5057304;28;20203;-86
2022/02/20 12:59:59;;;;;;;35.43;6.77;;;11.00;99.90;;;;;;5059052;28;20628;-89
2022/02/20 13:02:39;;;;;;;28.97;5.90;;;10.90;99.90;;;;;;5057932;28;20202;-88
2022/02/20 13:05:15;;;;;;;38.67;7.18;;;10.90;99.90;;;;;;5057992;28;20513;-85